Terminal Aerodrome Forecast
Issued by NWS

Home | Current Version | Previous Version | Text Only | Print | Product List | Glossary On
Versions: 1 2 3 4 5 6 7 8 9 10 11 12 13 14 15 16 17 18 19 20 21 22 23 24 25 26 27 28 29 30 31 32
117
FTUS43 KDVN 301524 AAC
TAFBRL
TAF AMD
KBRL 301524Z 3015/0112 09015KT 3SM -RA BR OVC006
      TEMPO 3015/3017 2SM -RA BR OVC005
     FM301800 09015G20KT 6SM BR VCSH OVC006
     FM010000 06012KT 4SM BR VCSH OVC006=

USA.gov is the U.S. government's official web portal to all federal, state and local government web resources and services.